createdAt,value
2023-03-08T00:01:45.648Z,98377.28
2023-03-08T00:04:13.133Z,98385.47
2023-03-08T00:06:40.650Z,98384.41
2023-03-08T00:09:08.080Z,98390.22
2023-03-08T00:11:35.494Z,98389.31
2023-03-08T00:14:03.160Z,98392.72
2023-03-08T00:16:30.580Z,98394.91
2023-03-08T00:18:59.319Z,98396.09
2023-03-08T00:24:09.823Z,98398.81
2023-03-08T00:26:37.251Z,98407.03
2023-03-08T00:29:04.896Z,98398.53
2023-03-08T00:31:32.463Z,98398.25
2023-03-08T00:34:01.339Z,98399.59
2023-03-08T00:36:28.877Z,98404.03
2023-03-08T00:41:44.570Z,98404.81
2023-03-08T00:44:11.986Z,98416.28
2023-03-08T00:46:39.482Z,98400.81
2023-03-08T00:49:08.278Z,98404.28
2023-03-08T00:51:35.732Z,98399.63
2023-03-08T00:54:03.205Z,98406.94
2023-03-08T00:56:30.677Z,98402.75
2023-03-08T00:58:58.197Z,98403.97
2023-03-08T01:01:25.631Z,98406.63
2023-03-08T01:03:53.144Z,98407.34
2023-03-08T01:06:22.102Z,98407.56
2023-03-08T01:08:49.547Z,98401.38
2023-03-08T01:11:20.759Z,98403.22
2023-03-08T01:16:50.556Z,98407.00
2023-03-08T01:19:18.135Z,98395.28
2023-03-08T01:21:46.933Z,98399.69
2023-03-08T01:24:14.515Z,98396.00
2023-03-08T01:26:41.934Z,98395.09
2023-03-08T01:32:13.564Z,98391.91
2023-03-08T01:34:41.019Z,98393.06
2023-03-08T01:37:09.813Z,98391.53
2023-03-08T01:39:37.257Z,98387.59
2023-03-08T01:44:55.496Z,98381.47
2023-03-08T01:47:24.534Z,98379.91
2023-03-08T01:53:27.865Z,98373.75
2023-03-08T01:55:55.737Z,98369.34
2023-03-08T01:58:23.355Z,98384.06
2023-03-08T02:00:50.877Z,98382.75
2023-03-08T02:03:18.350Z,98374.91
2023-03-08T02:05:45.814Z,98375.50
2023-03-08T02:08:19.827Z,98366.59
2023-03-08T02:13:52.308Z,98358.19
2023-03-08T02:16:21.295Z,98357.06
2023-03-08T02:18:58.142Z,98355.72
2023-03-08T02:21:26.274Z,98354.88
2023-03-08T02:23:55.646Z,98358.97
2023-03-08T02:26:23.660Z,98356.03
2023-03-08T02:28:51.103Z,98359.03
2023-03-08T02:31:20.105Z,98360.91
2023-03-08T02:33:47.511Z,98357.56
2023-03-08T02:36:14.938Z,98347.41
2023-03-08T02:38:43.331Z,98353.41
2023-03-08T02:41:12.079Z,98353.41
2023-03-08T02:43:39.554Z,98345.34
2023-03-08T02:46:07.098Z,98347.66
2023-03-08T02:48:34.543Z,98347.59
2023-03-08T02:51:20.526Z,98333.66
2023-03-08T02:53:47.997Z,98335.31
2023-03-08T02:56:17.413Z,98332.91
2023-03-08T02:58:45.743Z,98330.28
2023-03-08T03:01:13.818Z,98329.06
2023-03-08T03:06:40.626Z,98324.28
2023-03-08T03:09:10.603Z,98315.44
2023-03-08T03:11:40.780Z,98313.81
2023-03-08T03:14:08.497Z,98314.75
2023-03-08T03:16:41.214Z,98323.09
2023-03-08T03:19:10.497Z,98311.84
2023-03-08T03:21:39.805Z,98315.69
2023-03-08T03:24:07.798Z,98309.47
2023-03-08T03:26:45.210Z,98320.34
2023-03-08T03:29:13.428Z,98318.81
2023-03-08T03:31:43.122Z,98309.56
2023-03-08T03:34:12.602Z,98305.97
2023-03-08T03:36:41.523Z,98306.75
2023-03-08T03:39:10.290Z,98318.44
2023-03-08T03:44:38.344Z,98319.00
2023-03-08T03:50:11.771Z,98321.59
2023-03-08T03:52:47.903Z,98327.91
2023-03-08T03:55:15.497Z,98319.31
2023-03-08T03:57:44.230Z,98321.22
2023-03-08T04:00:18.474Z,98325.78
2023-03-08T04:03:11.283Z,98326.00
2023-03-08T04:05:39.832Z,98328.69
2023-03-08T04:08:08.197Z,98328.84
2023-03-08T04:10:37.476Z,98328.63
2023-03-08T04:13:05.798Z,98323.03
2023-03-08T04:15:34.679Z,98315.47
2023-03-08T04:18:06.432Z,98324.03
2023-03-08T04:20:35.624Z,98322.97
2023-03-08T04:26:08.290Z,98311.91
2023-03-08T04:31:36.920Z,98303.88
2023-03-08T04:34:08.782Z,98311.84
2023-03-08T04:39:38.511Z,98312.22
2023-03-08T04:42:06.977Z,98310.09
2023-03-08T04:47:21.113Z,98302.97
2023-03-08T04:49:49.242Z,98285.88
2023-03-08T04:52:17.301Z,98286.66
2023-03-08T04:54:45.448Z,98287.34
2023-03-08T04:57:23.068Z,98286.03
2023-03-08T05:02:57.843Z,98271.13
2023-03-08T05:05:26.270Z,98262.72
2023-03-08T05:07:54.856Z,98262.06
2023-03-08T05:10:22.659Z,98258.59
2023-03-08T05:12:51.055Z,98259.66
2023-03-08T05:15:18.806Z,98260.41
2023-03-08T05:17:46.802Z,98258.03
2023-03-08T05:20:16.269Z,98260.47
2023-03-08T05:22:57.998Z,98264.88
2023-03-08T05:25:31.310Z,98260.88
2023-03-08T05:27:59.387Z,98265.56
2023-03-08T05:30:26.974Z,98269.53
2023-03-08T05:32:54.744Z,98269.19
2023-03-08T05:38:20.843Z,98252.16
2023-03-08T05:40:48.691Z,98246.84
2023-03-08T05:46:17.405Z,98244.03
2023-03-08T05:48:45.765Z,98232.63
2023-03-08T05:51:17.211Z,98229.00
2023-03-08T05:53:46.595Z,98237.28
2023-03-08T05:56:19.418Z,98233.22
2023-03-08T06:02:07.651Z,98227.66
2023-03-08T06:07:43.607Z,98220.69
2023-03-08T06:10:15.157Z,98215.16
2023-03-08T06:12:42.650Z,98201.41
2023-03-08T06:15:14.524Z,98206.56
2023-03-08T06:17:42.779Z,98211.75
2023-03-08T06:20:12.735Z,98208.00
2023-03-08T06:23:01.514Z,98204.75
2023-03-08T06:25:30.286Z,98192.75
2023-03-08T06:27:58.226Z,98200.38
2023-03-08T06:30:34.759Z,98193.84
2023-03-08T06:33:04.578Z,98188.44
2023-03-08T06:35:32.269Z,98192.19
2023-03-08T06:38:02.495Z,98193.97
2023-03-08T06:40:32.313Z,98199.53
2023-03-08T06:43:00.573Z,98192.53
2023-03-08T06:48:41.192Z,98193.53
2023-03-08T06:51:08.713Z,98187.34
2023-03-08T06:53:38.052Z,98186.19
2023-03-08T06:56:09.430Z,98183.06
2023-03-08T07:01:25.543Z,98175.72
2023-03-08T07:03:53.310Z,98167.84
2023-03-08T07:06:20.738Z,98167.66
2023-03-08T07:08:48.160Z,98167.81
2023-03-08T07:11:16.955Z,98160.47
2023-03-08T07:14:09.518Z,98152.94
2023-03-08T07:16:36.947Z,98156.03
2023-03-08T07:22:02.509Z,98149.38
2023-03-08T07:24:29.936Z,98145.09
2023-03-08T07:26:58.717Z,98135.28
2023-03-08T07:29:26.138Z,98136.91
2023-03-08T07:31:53.633Z,98131.31
2023-03-08T07:37:16.867Z,98129.19
2023-03-08T07:42:52.893Z,98126.44
2023-03-08T07:45:32.184Z,98134.13
2023-03-08T07:47:59.684Z,98132.63
2023-03-08T07:53:17.463Z,98124.59
2023-03-08T07:55:45.024Z,98127.88
2023-03-08T07:58:12.664Z,98126.75
2023-03-08T08:00:40.073Z,98122.63
2023-03-08T08:03:07.536Z,98122.31
2023-03-08T08:05:36.346Z,98122.97
2023-03-08T08:08:04.053Z,98115.78
2023-03-08T08:10:32.791Z,98121.97
2023-03-08T08:13:00.232Z,98121.31
2023-03-08T08:18:30.369Z,98114.59
2023-03-08T08:21:02.176Z,98112.50
2023-03-08T08:23:29.730Z,98120.00
2023-03-08T08:25:58.730Z,98114.59
2023-03-08T08:28:27.762Z,98111.06
2023-03-08T08:31:00.067Z,98102.97
2023-03-08T08:33:28.832Z,98102.66
2023-03-08T08:35:56.493Z,98096.69
2023-03-08T08:38:24.278Z,98092.78
2023-03-08T08:40:51.819Z,98094.97
2023-03-08T08:43:20.618Z,98098.88
2023-03-08T08:45:51.962Z,98094.63
2023-03-08T08:48:19.498Z,98078.00
2023-03-08T08:50:47.389Z,98081.84
2023-03-08T08:53:15.626Z,98078.69
2023-03-08T08:55:45.380Z,98074.59
2023-03-08T08:58:13.059Z,98076.78
2023-03-08T09:03:41.290Z,98055.38
2023-03-08T09:06:08.815Z,98060.88
2023-03-08T09:08:36.508Z,98069.00
2023-03-08T09:11:05.134Z,98053.53
2023-03-08T09:13:32.664Z,98052.03
2023-03-08T09:16:01.486Z,98056.72
2023-03-08T09:18:29.366Z,98056.00
2023-03-08T09:20:56.808Z,98045.47
2023-03-08T09:23:24.235Z,98043.34
2023-03-08T09:25:59.920Z,98041.06
2023-03-08T09:28:28.791Z,98035.06
2023-03-08T09:30:56.290Z,98037.06
2023-03-08T09:33:25.212Z,98029.22
2023-03-08T09:38:41.457Z,98025.31
2023-03-08T09:41:21.470Z,98022.63
2023-03-08T09:44:05.627Z,98014.22
2023-03-08T09:46:48.936Z,98005.38
2023-03-08T09:49:21.426Z,98008.50
2023-03-08T09:54:52.028Z,97998.94
2023-03-08T09:57:25.446Z,98005.59
2023-03-08T09:59:55.512Z,97992.34
2023-03-08T10:02:35.577Z,97986.41
2023-03-08T10:05:13.713Z,97993.03
2023-03-08T10:10:50.007Z,97986.97
2023-03-08T10:13:28.579Z,97981.09
2023-03-08T10:15:59.742Z,97981.25
2023-03-08T10:18:30.849Z,97978.41
2023-03-08T10:21:03.449Z,97985.44
2023-03-08T10:23:33.456Z,97978.38
2023-03-08T10:29:03.280Z,97969.63
2023-03-08T10:34:33.837Z,97975.53
2023-03-08T10:37:04.781Z,97976.44
2023-03-08T10:39:32.256Z,97978.78
2023-03-08T10:42:01.583Z,97975.34
2023-03-08T10:44:33.560Z,97969.75
2023-03-08T10:47:18.599Z,97966.84
2023-03-08T10:52:35.811Z,97962.00
2023-03-08T10:55:04.737Z,97967.34
2023-03-08T10:57:32.932Z,97957.81
2023-03-08T11:00:05.271Z,97949.03
2023-03-08T11:05:23.452Z,97937.84
2023-03-08T11:07:53.940Z,97933.44
2023-03-08T11:13:09.698Z,97936.59
2023-03-08T11:15:38.429Z,97939.78
2023-03-08T11:18:12.409Z,97932.56
2023-03-08T11:20:42.239Z,97928.25
2023-03-08T11:23:17.798Z,97936.97
2023-03-08T11:25:48.890Z,97939.66
2023-03-08T11:28:43.794Z,97942.34
2023-03-08T11:31:15.712Z,97931.91
2023-03-08T11:33:55.761Z,97923.56
2023-03-08T11:36:25.850Z,97930.09
2023-03-08T11:39:05.767Z,97935.00
2023-03-08T11:41:39.791Z,97931.91
2023-03-08T11:44:16.279Z,97925.66
2023-03-08T11:46:53.641Z,97918.41
2023-03-08T11:52:29.776Z,97902.41
2023-03-08T11:55:07.363Z,97889.63
2023-03-08T11:57:38.191Z,97890.38
2023-03-08T12:00:13.164Z,97907.66
2023-03-08T12:02:44.712Z,97911.03
2023-03-08T12:05:15.336Z,97915.75
2023-03-08T12:07:47.510Z,97911.22
2023-03-08T12:10:21.071Z,97908.47
2023-03-08T12:15:48.638Z,97901.81
2023-03-08T12:18:21.205Z,97889.97
2023-03-08T12:20:49.792Z,97878.78
2023-03-08T12:23:23.096Z,97874.50
2023-03-08T12:25:54.175Z,97878.50
2023-03-08T12:28:27.873Z,97882.28
2023-03-08T12:31:26.280Z,97880.44
2023-03-08T12:36:57.344Z,97877.84
2023-03-08T12:39:28.863Z,97877.59
2023-03-08T12:42:03.397Z,97871.00
2023-03-08T12:44:31.916Z,97868.72
2023-03-08T12:47:03.644Z,97874.53
2023-03-08T12:49:33.432Z,97864.94
2023-03-08T12:52:03.625Z,97857.38
2023-03-08T12:54:33.751Z,97845.78
2023-03-08T13:00:06.508Z,97835.91
2023-03-08T13:02:35.086Z,97834.38
2023-03-08T13:05:19.090Z,97829.59
2023-03-08T13:08:03.858Z,97830.47
2023-03-08T13:10:33.491Z,97833.28
2023-03-08T13:13:31.747Z,97840.16
2023-03-08T13:16:22.127Z,97836.28
2023-03-08T13:18:52.817Z,97836.72
2023-03-08T13:21:28.406Z,97838.09
2023-03-08T13:27:07.815Z,97835.09
2023-03-08T13:29:37.037Z,97832.00
2023-03-08T13:32:11.037Z,97827.47
2023-03-08T13:34:41.081Z,97827.25
2023-03-08T13:37:21.179Z,97840.97
2023-03-08T13:42:37.241Z,97836.97
2023-03-08T13:45:11.358Z,97833.88
2023-03-08T13:47:40.835Z,97830.81
2023-03-08T13:50:09.793Z,97829.78
2023-03-08T13:52:39.008Z,97829.13
2023-03-08T13:55:08.803Z,97833.19
2023-03-08T13:57:37.733Z,97830.47
2023-03-08T14:00:24.266Z,97824.19
2023-03-08T14:02:52.244Z,97818.47
2023-03-08T14:05:22.586Z,97803.88
2023-03-08T14:08:01.642Z,97798.78
2023-03-08T14:10:37.182Z,97793.78
2023-03-08T14:13:05.584Z,97789.94
2023-03-08T14:15:36.354Z,97791.91
2023-03-08T14:18:04.647Z,97800.63
2023-03-08T14:20:32.321Z,97799.81
2023-03-08T14:22:59.894Z,97780.13
2023-03-08T14:25:29.331Z,97776.84
2023-03-08T14:27:57.447Z,97778.66
2023-03-08T14:33:41.762Z,97766.47
2023-03-08T14:36:10.815Z,97777.91
2023-03-08T14:38:38.422Z,97772.25
2023-03-08T14:41:06.972Z,97758.44
2023-03-08T14:43:34.408Z,97753.91
2023-03-08T14:46:03.496Z,97751.41
2023-03-08T14:48:34.159Z,97744.75
2023-03-08T14:53:57.652Z,97732.84
2023-03-08T14:56:25.109Z,97736.41
2023-03-08T14:58:53.748Z,97738.06
2023-03-08T15:01:25.438Z,97730.72
2023-03-08T15:03:54.299Z,97725.59
2023-03-08T15:06:24.427Z,97722.88
2023-03-08T15:11:40.285Z,97702.28
2023-03-08T15:14:07.801Z,97696.53
2023-03-08T15:16:35.297Z,97685.75
2023-03-08T15:19:04.278Z,97690.19
2023-03-08T15:21:31.942Z,97696.50
2023-03-08T15:23:59.476Z,97696.63
2023-03-08T15:26:28.991Z,97724.06
2023-03-08T15:28:56.797Z,97723.25
2023-03-08T15:31:24.211Z,97720.75
2023-03-08T15:36:52.082Z,97726.97
2023-03-08T15:39:20.138Z,97723.47
2023-03-08T15:41:47.850Z,97730.63
2023-03-08T15:44:15.260Z,97737.59
2023-03-08T15:46:42.941Z,97733.88
2023-03-08T15:52:14.534Z,97734.44
2023-03-08T15:54:44.931Z,97730.28
2023-03-08T15:57:12.358Z,97736.09
2023-03-08T15:59:39.950Z,97743.84
2023-03-08T16:02:08.084Z,97737.25
2023-03-08T16:07:25.659Z,97732.75
2023-03-08T16:09:53.129Z,97735.13
2023-03-08T16:12:20.774Z,97733.78
2023-03-08T16:14:49.530Z,97723.53
2023-03-08T16:17:18.537Z,97719.19
2023-03-08T16:19:46.268Z,97729.44
2023-03-08T16:22:13.972Z,97730.91
2023-03-08T16:24:42.857Z,97728.16
2023-03-08T16:27:10.338Z,97726.34
2023-03-08T16:29:38.074Z,97738.03
2023-03-08T16:32:06.157Z,97732.16
2023-03-08T16:34:33.801Z,97738.66
2023-03-08T16:37:01.267Z,97738.38
2023-03-08T16:42:32.592Z,97743.25
2023-03-08T16:45:00.074Z,97739.66
2023-03-08T16:47:31.948Z,97738.16
2023-03-08T16:50:00.444Z,97742.50
2023-03-08T16:52:28.664Z,97750.03
2023-03-08T16:54:57.082Z,97754.84
2023-03-08T16:57:24.652Z,97748.50
2023-03-08T16:59:53.419Z,97749.06
2023-03-08T17:02:22.453Z,97755.88
2023-03-08T17:04:50.592Z,97754.59
2023-03-08T17:07:18.741Z,97753.97
2023-03-08T17:09:46.525Z,97749.91
2023-03-08T17:12:14.116Z,97753.84
2023-03-08T17:14:43.945Z,97753.16
2023-03-08T17:17:13.842Z,97742.50
2023-03-08T17:19:41.402Z,97746.59
2023-03-08T17:22:09.165Z,97745.75
2023-03-08T17:27:33.733Z,97750.59
2023-03-08T17:30:03.552Z,97744.53
2023-03-08T17:32:32.510Z,97743.19
2023-03-08T17:34:59.923Z,97739.00
2023-03-08T17:37:27.446Z,97739.56
2023-03-08T17:39:54.869Z,97744.25
2023-03-08T17:45:08.990Z,97745.75
2023-03-08T17:47:37.847Z,97733.00
2023-03-08T17:50:06.460Z,97727.34
2023-03-08T17:52:34.098Z,97721.91
2023-03-08T17:55:01.559Z,97712.03
2023-03-08T18:00:31.216Z,97707.97
2023-03-08T18:03:00.313Z,97719.63
2023-03-08T18:05:27.906Z,97720.94
2023-03-08T18:07:55.338Z,97733.13
2023-03-08T18:10:22.831Z,97738.41
2023-03-08T18:12:50.383Z,97735.88
2023-03-08T18:15:17.936Z,97735.44
2023-03-08T18:17:45.492Z,97728.13
2023-03-08T18:20:14.344Z,97725.16
2023-03-08T18:22:41.880Z,97728.66
2023-03-08T18:25:09.887Z,97721.19
2023-03-08T18:30:36.391Z,97708.34
2023-03-08T18:33:05.114Z,97704.38
2023-03-08T18:35:33.913Z,97712.16
2023-03-08T18:38:02.156Z,97701.75
2023-03-08T18:40:30.152Z,97705.88
2023-03-08T18:42:57.695Z,97710.50
2023-03-08T18:45:25.135Z,97709.03
2023-03-08T18:47:53.222Z,97708.00
2023-03-08T18:50:21.674Z,97715.09
2023-03-08T18:55:55.220Z,97712.13
2023-03-08T19:01:25.454Z,97718.69
2023-03-08T19:03:53.275Z,97718.81
2023-03-08T19:06:20.863Z,97709.22
2023-03-08T19:08:48.333Z,97707.50
2023-03-08T19:11:18.517Z,97713.09
2023-03-08T19:13:46.278Z,97718.69
2023-03-08T19:16:21.552Z,97722.25
2023-03-08T19:18:50.534Z,97714.13
2023-03-08T19:24:07.510Z,97707.03
2023-03-08T19:26:38.259Z,97711.84
2023-03-08T19:29:08.232Z,97711.66
2023-03-08T19:31:37.334Z,97706.13
2023-03-08T19:37:05.180Z,97705.31
2023-03-08T19:39:34.393Z,97705.13
2023-03-08T19:42:04.922Z,97700.41
2023-03-08T19:44:33.233Z,97697.09
2023-03-08T19:47:00.836Z,97703.50
2023-03-08T19:52:29.776Z,97692.06
2023-03-08T19:54:57.256Z,97693.34
2023-03-08T19:57:26.187Z,97685.03
2023-03-08T19:59:53.678Z,97689.50
2023-03-08T20:02:21.143Z,97684.75
2023-03-08T20:04:48.766Z,97690.97
2023-03-08T20:07:16.193Z,97689.00
2023-03-08T20:09:43.871Z,97686.00
2023-03-08T20:12:11.608Z,97693.84
2023-03-08T20:14:40.456Z,97689.66
2023-03-08T20:17:07.879Z,97693.00
2023-03-08T20:19:36.517Z,97690.00
2023-03-08T20:22:05.006Z,97691.72
2023-03-08T20:27:31.218Z,97701.16
2023-03-08T20:29:59.990Z,97708.50
2023-03-08T20:32:27.474Z,97699.13
2023-03-08T20:34:55.008Z,97693.44
2023-03-08T20:37:22.687Z,97698.25
2023-03-08T20:39:51.647Z,97694.88
2023-03-08T20:42:19.095Z,97686.63
2023-03-08T20:47:54.187Z,97692.34
2023-03-08T20:53:24.278Z,97690.41
2023-03-08T20:55:51.698Z,97679.06
2023-03-08T20:58:19.180Z,97660.50
2023-03-08T21:00:46.691Z,97672.84
2023-03-08T21:03:15.817Z,97663.69
2023-03-08T21:05:43.362Z,97653.75
2023-03-08T21:08:10.784Z,97645.28
2023-03-08T21:10:39.202Z,97658.66
2023-03-08T21:16:12.113Z,97650.00
2023-03-08T21:18:45.970Z,97634.88
2023-03-08T21:21:21.673Z,97632.19
2023-03-08T21:23:50.085Z,97639.06
2023-03-08T21:26:17.494Z,97640.25
2023-03-08T21:28:44.875Z,97629.16
2023-03-08T21:31:12.373Z,97633.25
2023-03-08T21:33:41.296Z,97629.69
2023-03-08T21:36:09.683Z,97627.00
2023-03-08T21:38:39.724Z,97635.03
2023-03-08T21:41:07.171Z,97627.75
2023-03-08T21:43:34.650Z,97621.34
2023-03-08T21:46:04.994Z,97624.69
2023-03-08T21:48:32.407Z,97613.56
2023-03-08T21:51:01.180Z,97620.09
2023-03-08T21:53:28.642Z,97619.88
2023-03-08T21:55:56.059Z,97615.28
2023-03-08T21:58:23.948Z,97614.63
2023-03-08T22:00:51.488Z,97607.56
2023-03-08T22:03:19.048Z,97607.91
2023-03-08T22:05:46.814Z,97603.59
2023-03-08T22:08:15.586Z,97593.16
2023-03-08T22:10:43.074Z,97596.44
2023-03-08T22:13:10.514Z,97581.81
2023-03-08T22:15:37.960Z,97583.19
2023-03-08T22:18:05.437Z,97584.47
2023-03-08T22:20:32.858Z,97587.50
2023-03-08T22:23:00.302Z,97583.34
2023-03-08T22:25:29.175Z,97582.03
2023-03-08T22:27:56.768Z,97573.66
2023-03-08T22:30:26.873Z,97569.56
2023-03-08T22:32:55.479Z,97577.97
2023-03-08T22:35:23.029Z,97572.22
2023-03-08T22:37:50.542Z,97579.19
2023-03-08T22:40:18.848Z,97576.06
2023-03-08T22:42:48.030Z,97575.47
2023-03-08T22:45:15.800Z,97576.75
2023-03-08T22:47:43.258Z,97568.19
2023-03-08T22:50:12.094Z,97562.03
2023-03-08T22:52:39.530Z,97568.72
2023-03-08T22:55:07.967Z,97560.75
2023-03-08T22:57:36.746Z,97552.28
2023-03-08T23:00:14.166Z,97558.50
2023-03-08T23:02:41.764Z,97551.22
2023-03-08T23:05:11.700Z,97527.53
2023-03-08T23:07:39.474Z,97524.28
2023-03-08T23:10:07.425Z,97535.59
2023-03-08T23:12:34.884Z,97547.31
2023-03-08T23:15:02.429Z,97550.66
2023-03-08T23:17:31.206Z,97550.75
2023-03-08T23:20:00.551Z,97552.50
2023-03-08T23:22:28.444Z,97557.81
2023-03-08T23:24:55.873Z,97545.78
2023-03-08T23:27:23.312Z,97549.69
2023-03-08T23:29:52.627Z,97545.34
2023-03-08T23:32:20.142Z,97549.88
2023-03-08T23:34:48.955Z,97558.81
2023-03-08T23:37:16.418Z,97553.03
2023-03-08T23:39:43.841Z,97534.94
2023-03-08T23:42:11.278Z,97533.13
2023-03-08T23:44:39.049Z,97515.34
2023-03-08T23:47:06.958Z,97516.59
2023-03-08T23:49:34.456Z,97519.94
2023-03-08T23:52:03.253Z,97525.25
2023-03-08T23:54:30.668Z,97506.22
2023-03-08T23:56:58.079Z,97497.00
2023-03-08T23:59:25.575Z,97493.22
